Time;durP1;ratioP1;P1;durP2;ratioP2;P2;SDS_P1;SDS_P2;PMS_P1;PMS_P2;Temp;Humidity;BMP_temperature;BMP_pressure;BME280_temperature;BME280_humidity;BME280_pressure;Samples;Min_cycle;Max_cycle;Signal;HPM_P1;HPM_P2
2021/08/06 00:01:29;;;;;;;15.30;6.10;;;;;;;23.43;56.92;100232.47;5030779;28;20179;-66
2021/08/06 00:03:55;;;;;;;10.57;5.67;;;;;;;23.31;57.08;100226.16;5023626;28;20625;-66
2021/08/06 00:06:26;;;;;;;12.43;5.40;;;;;;;23.07;56.28;100188.59;5010743;28;20233;-66
2021/08/06 00:08:52;;;;;;;13.37;5.83;;;;;;;23.35;56.69;100229.47;5014011;28;20639;-66
2021/08/06 00:11:18;;;;;;;10.27;5.53;;;;;;;23.38;56.81;100236.88;5028595;28;20203;-66
2021/08/06 00:13:43;;;;;;;11.13;5.57;;;;;;;22.97;56.99;100185.34;5010982;28;20640;-67
2021/08/06 00:16:09;;;;;;;10.77;5.40;;;;;;;23.13;56.58;100237.38;5011053;28;20557;-66
2021/08/06 00:18:34;;;;;;;14.47;6.00;;;;;;;23.15;57.58;100240.41;5010877;28;20190;-66
2021/08/06 00:21:00;;;;;;;9.13;5.20;;;;;;;22.95;56.28;100246.50;5026127;28;20177;-66
2021/08/06 00:23:25;;;;;;;9.10;3.77;;;;;;;22.87;53.96;100245.56;5028005;28;20192;-66
2021/08/06 00:25:51;;;;;;;9.80;4.97;;;;;;;22.54;56.25;100192.91;4993062;28;20189;-66
2021/08/06 00:28:16;;;;;;;6.40;3.40;;;;;;;22.98;52.88;100259.59;5010590;28;20805;-66
2021/08/06 00:30:42;;;;;;;7.33;2.77;;;;;;;23.02;52.08;100258.00;5010781;28;20209;-66
2021/08/06 00:33:07;;;;;;;6.13;2.73;;;;;;;23.14;51.24;100262.25;5010378;28;20252;-66
2021/08/06 00:35:32;;;;;;;6.30;2.23;;;;;;;23.32;50.58;100260.84;4995976;28;20184;-66
2021/08/06 00:37:58;;;;;;;6.63;2.60;;;;;;;23.45;50.54;100256.09;5030553;28;20181;-66
2021/08/06 00:40:24;;;;;;;6.10;2.50;;;;;;;23.52;49.82;100266.81;5030107;28;20184;-66
2021/08/06 00:42:50;;;;;;;6.27;2.50;;;;;;;23.74;49.40;100263.00;5029406;28;20181;-66
2021/08/06 00:45:16;;;;;;;5.77;2.13;;;;;;;23.77;49.87;100253.44;5013341;28;20581;-66
2021/08/06 00:47:42;;;;;;;7.97;2.70;;;;;;;23.54;49.86;100218.97;5013884;28;20184;-66
2021/08/06 00:50:09;;;;;;;8.50;2.50;;;;;;;23.95;49.62;100275.38;5030367;28;20236;-66
2021/08/06 00:52:35;;;;;;;5.17;2.60;;;;;;;23.85;50.44;100237.41;5011987;28;20192;-66
2021/08/06 00:55:01;;;;;;;4.90;2.53;;;;;;;24.17;49.96;100281.53;5012348;28;20231;-66
2021/08/06 00:57:26;;;;;;;7.10;2.53;;;;;;;24.22;49.16;100282.75;5029639;28;20191;-66
2021/08/06 00:59:52;;;;;;;8.03;3.03;;;;;;;24.28;49.40;100284.22;5017636;28;20601;-66
2021/08/06 01:02:21;;;;;;;7.77;3.00;;;;;;;24.36;49.24;100290.03;5030128;28;20173;-66
2021/08/06 01:04:56;;;;;;;6.70;2.80;;;;;;;24.41;49.21;100289.94;5017880;28;20211;-66
2021/08/06 01:08:06;;;;;;;6.73;2.33;;;;;;;24.50;49.42;100295.25;5009765;28;20679;-66
2021/08/06 01:10:55;;;;;;;6.33;2.30;;;;;;;24.55;49.29;100304.94;5025783;28;20652;-66
2021/08/06 01:13:29;;;;;;;8.23;2.73;;;;;;;24.55;49.31;100304.94;5013408;28;20572;-66
2021/08/06 01:15:57;;;;;;;8.27;2.90;;;;;;;24.58;49.59;100306.72;5010104;28;20263;-66
2021/08/06 01:18:27;;;;;;;7.40;2.97;;;;;;;24.59;49.69;100311.13;5010186;28;20188;-66
2021/08/06 01:20:59;;;;;;;10.50;2.90;;;;;;;24.59;48.86;100314.72;5022313;28;20639;-66
2021/08/06 01:23:29;;;;;;;6.10;3.03;;;;;;;24.62;49.76;100316.47;5029497;28;20695;-66
2021/08/06 01:25:57;;;;;;;6.70;2.63;;;;;;;24.58;48.77;100315.22;5009841;28;20212;-66
2021/08/06 01:28:31;;;;;;;5.93;2.97;;;;;;;24.55;49.86;100317.06;5017416;28;20647;-66
2021/08/06 01:30:57;;;;;;;6.97;2.60;;;;;;;24.15;49.90;100255.06;5012134;28;20724;-66
2021/08/06 01:33:22;;;;;;;7.27;2.47;;;;;;;24.54;48.66;100324.03;5013725;28;20405;-66
2021/08/06 01:35:49;;;;;;;7.37;2.37;;;;;;;24.43;48.70;100323.41;5012472;28;20685;-66
2021/08/06 01:38:16;;;;;;;4.93;2.30;;;;;;;24.41;49.56;100323.19;5029744;28;20189;-66
2021/08/06 01:41:10;;;;;;;6.10;2.40;;;;;;;24.40;50.68;100313.13;5029724;28;20182;-66
2021/08/06 01:44:13;;;;;;;5.83;2.47;;;;;;;24.34;50.49;100316.06;5029442;28;20172;-66
2021/08/06 01:46:53;;;;;;;4.80;2.40;;;;;;;24.30;51.45;100309.91;5029698;28;20222;-66
2021/08/06 01:49:48;;;;;;;6.47;2.83;;;;;;;24.31;51.16;100322.03;5029412;28;20204;-66
2021/08/06 01:52:18;;;;;;;6.93;2.70;;;;;;;24.30;51.51;100312.00;5009975;28;20300;-66
2021/08/06 01:54:46;;;;;;;8.30;2.93;;;;;;;23.94;51.34;100266.13;5032627;28;20235;-66
2021/08/06 01:57:13;;;;;;;6.83;3.07;;;;;;;24.28;51.77;100312.53;5033196;28;20181;-66
2021/08/06 01:59:40;;;;;;;5.97;2.53;;;;;;;24.25;50.97;100310.00;5018814;28;20190;-66
2021/08/06 02:02:07;;;;;;;8.87;3.00;;;;;;;24.22;50.95;100311.06;5033436;28;20263;-66
2021/08/06 02:04:33;;;;;;;5.83;3.10;;;;;;;24.21;51.53;100309.53;5032787;28;20196;-66
2021/08/06 02:06:59;;;;;;;9.70;3.37;;;;;;;23.77;51.69;100257.03;5015179;28;20236;-66
2021/08/06 02:09:25;;;;;;;9.97;3.40;;;;;;;23.83;51.44;100274.69;5024587;28;20192;-66
2021/08/06 02:11:52;;;;;;;6.60;3.10;;;;;;;23.64;51.46;100248.41;5032937;28;20683;-66
2021/08/06 02:14:19;;;;;;;8.97;3.33;;;;;;;24.09;51.87;100319.44;5032998;28;20651;-66
2021/08/06 02:16:46;;;;;;;7.03;3.03;;;;;;;24.10;52.14;100318.91;5005674;28;20192;-66
2021/08/06 02:19:13;;;;;;;5.83;2.97;;;;;;;24.08;52.16;100326.41;5013316;28;20201;-66
2021/08/06 02:21:40;;;;;;;10.37;3.17;;;;;;;24.08;51.89;100332.06;5013227;28;20181;-66
2021/08/06 02:24:10;;;;;;;7.87;2.70;;;;;;;23.97;51.61;100313.16;5017126;28;20188;-66
2021/08/06 02:26:38;;;;;;;6.30;3.03;;;;;;;23.59;51.88;100271.88;5032391;28;20196;-66
2021/08/06 02:29:07;;;;;;;8.00;2.90;;;;;;;24.04;52.01;100323.09;5032460;28;20180;-66
2021/08/06 02:31:33;;;;;;;13.07;3.50;;;;;;;24.04;51.88;100326.72;5014841;28;20274;-66
2021/08/06 02:34:00;;;;;;;5.17;2.80;;;;;;;23.41;51.61;100241.47;5032643;28;20177;-66
2021/08/06 02:36:25;;;;;;;8.43;2.90;;;;;;;23.53;52.12;100296.63;5008342;28;20208;-66
2021/08/06 02:38:55;;;;;;;7.70;2.80;;;;;;;23.57;53.67;100347.25;5013093;28;20178;-66
2021/08/06 02:41:21;;;;;;;5.67;2.53;;;;;;;23.13;55.14;100354.00;5012779;28;20184;-65
2021/08/06 02:43:47;;;;;;;4.53;2.00;;;;;;;23.05;55.55;100357.91;5012813;28;20174;-66
2021/08/06 02:46:12;;;;;;;3.93;2.20;;;;;;;23.05;55.73;100355.09;5012348;28;20185;-66
2021/08/06 02:48:38;;;;;;;5.33;1.80;;;;;;;23.05;55.57;100350.22;5019872;28;20192;-66
2021/08/06 02:51:03;;;;;;;5.40;1.77;;;;;;;23.09;55.40;100350.69;5014594;28;20590;-66
2021/08/06 02:53:28;;;;;;;6.40;2.07;;;;;;;23.07;55.45;100352.50;5032083;28;20561;-65
2021/08/06 02:55:54;;;;;;;7.03;2.00;;;;;;;23.03;55.96;100361.28;5031882;28;20173;-65
2021/08/06 02:58:20;;;;;;;4.97;1.87;;;;;;;23.06;55.95;100368.72;5027495;28;20614;-66
2021/08/06 03:00:47;;;;;;;5.03;2.10;;;;;;;23.02;56.07;100365.38;5012306;28;20541;-66
2021/08/06 03:03:13;;;;;;;6.03;2.10;;;;;;;23.08;56.09;100373.84;5012334;28;20298;-66
2021/08/06 03:05:38;;;;;;;5.40;1.97;;;;;;;23.03;56.35;100383.88;5011159;28;20213;-66
2021/08/06 03:08:04;;;;;;;4.10;1.80;;;;;;;23.04;56.31;100384.66;5012267;28;20604;-66
2021/08/06 03:10:30;;;;;;;3.17;2.00;;;;;;;23.02;56.36;100384.44;5027770;28;20197;-66
2021/08/06 03:12:55;;;;;;;5.37;2.07;;;;;;;23.03;56.55;100392.34;5023051;28;20190;-66
2021/08/06 03:15:21;;;;;;;3.70;1.80;;;;;;;23.00;56.73;100393.41;5011832;28;20236;-66
2021/08/06 03:17:47;;;;;;;3.17;1.90;;;;;;;22.94;56.97;100391.91;5012039;28;20188;-65
2021/08/06 03:20:15;;;;;;;4.80;2.50;;;;;;;22.51;57.35;100349.25;4994517;28;20196;-66
2021/08/06 03:22:41;;;;;;;4.27;2.07;;;;;;;22.79;57.52;100405.59;5012132;28;20189;-66
2021/08/06 03:25:08;;;;;;;4.20;2.00;;;;;;;22.67;57.87;100404.13;5022076;28;20284;-65
2021/08/06 03:27:34;;;;;;;3.33;1.90;;;;;;;22.60;57.83;100401.84;5031430;28;20177;-65
2021/08/06 03:30:00;;;;;;;5.93;1.80;;;;;;;22.61;57.89;100411.88;5031211;28;20756;-66
2021/08/06 03:32:25;;;;;;;5.07;2.63;;;;;;;21.92;58.23;100331.22;5027164;28;20203;-65
2021/08/06 03:34:51;;;;;;;4.57;2.13;;;;;;;22.02;58.22;100361.47;5012025;28;20178;-66
2021/08/06 03:37:17;;;;;;;4.33;2.27;;;;;;;22.39;58.65;100415.50;5022027;28;20231;-65
2021/08/06 03:39:42;;;;;;;3.63;2.00;;;;;;;22.35;58.79;100414.22;5031754;28;20259;-66
2021/08/06 03:42:07;;;;;;;3.70;2.60;;;;;;;22.31;58.64;100417.31;5013537;28;20261;-66
2021/08/06 03:44:33;;;;;;;4.23;2.20;;;;;;;22.16;59.12;100408.38;5011470;28;20841;-66
2021/08/06 03:46:59;;;;;;;3.90;2.50;;;;;;;22.13;59.30;100426.34;5011352;28;20639;-65
2021/08/06 03:49:25;;;;;;;4.27;2.77;;;;;;;22.07;59.59;100428.44;5023038;28;20229;-66
2021/08/06 03:51:50;;;;;;;3.53;2.30;;;;;;;22.03;59.64;100415.84;5031156;28;20258;-66
2021/08/06 03:54:16;;;;;;;3.87;2.50;;;;;;;21.76;59.86;100391.28;5031419;28;20187;-66
2021/08/06 03:56:42;;;;;;;5.47;2.90;;;;;;;21.87;59.70;100406.13;5030692;28;20212;-66
2021/08/06 03:59:07;;;;;;;2.77;2.57;;;;;;;22.04;59.61;100420.19;5019968;28;20185;-65
2021/08/06 04:01:33;;;;;;;5.67;3.20;;;;;;;22.05;59.30;100427.41;5023326;28;20185;-66
2021/08/06 04:03:58;;;;;;;10.90;3.40;;;;;;;22.01;59.57;100433.28;5031260;28;20180;-65
2021/08/06 04:06:23;;;;;;;6.23;3.00;;;;;;;22.01;59.52;100438.19;5029922;28;20224;-66
2021/08/06 04:08:49;;;;;;;4.00;3.07;;;;;;;22.07;59.21;100441.75;5028939;28;20189;-66
2021/08/06 04:11:14;;;;;;;3.27;2.97;;;;;;;22.02;59.53;100442.53;4993431;28;20692;-65
2021/08/06 04:13:40;;;;;;;5.90;3.60;;;;;;;22.15;58.65;100448.44;5023655;28;20196;-66
2021/08/06 04:16:05;;;;;;;3.63;3.23;;;;;;;22.24;58.80;100453.78;5030554;28;20207;-65
2021/08/06 04:18:31;;;;;;;3.27;2.90;;;;;;;22.17;58.50;100443.81;5030307;28;20185;-65
2021/08/06 04:20:57;;;;;;;5.03;3.10;;;;;;;22.36;58.27;100458.13;5030487;28;20256;-65
2021/08/06 04:23:23;;;;;;;3.93;3.10;;;;;;;22.53;58.56;100462.47;5030789;28;20180;-68
2021/08/06 04:25:50;;;;;;;5.93;2.73;;;;;;;22.60;57.07;100472.44;5030259;28;20184;-66
2021/08/06 04:28:15;;;;;;;3.90;2.70;;;;;;;22.66;56.92;100459.06;5030095;28;20556;-66
2021/08/06 04:30:41;;;;;;;4.07;3.23;;;;;;;22.50;57.00;100407.03;5030325;28;20207;-66
2021/08/06 04:33:06;;;;;;;3.53;3.20;;;;;;;23.02;56.46;100472.78;5030282;28;20185;-66
2021/08/06 04:35:32;;;;;;;4.13;3.13;;;;;;;23.18;56.23;100476.84;5027757;28;20204;-66
2021/08/06 04:37:58;;;;;;;4.13;2.80;;;;;;;23.21;56.27;100481.44;5005724;28;20186;-66
2021/08/06 04:40:23;;;;;;;4.40;3.10;;;;;;;22.38;56.26;100336.97;4995387;28;20582;-65
2021/08/06 04:42:49;;;;;;;5.10;3.20;;;;;;;23.35;55.86;100480.34;5006858;28;20312;-66
2021/08/06 04:45:15;;;;;;;4.27;3.43;;;;;;;23.30;56.62;100479.09;5024728;28;20173;-66
2021/08/06 04:47:45;;;;;;;3.90;3.50;;;;;;;22.98;56.75;100438.38;5026734;28;20193;-65
2021/08/06 04:50:13;;;;;;;4.80;3.43;;;;;;;23.18;56.56;100465.53;5029306;28;20761;-65
2021/08/06 04:52:39;;;;;;;4.13;3.70;;;;;;;23.27;56.71;100482.19;5006001;28;20198;-66
2021/08/06 04:55:05;;;;;;;6.80;3.90;;;;;;;22.63;56.70;100392.34;5010060;28;20178;-66
2021/08/06 04:57:30;;;;;;;6.47;3.67;;;;;;;23.24;56.61;100481.16;5009251;28;20193;-65
2021/08/06 04:59:55;;;;;;;4.17;3.77;;;;;;;23.12;56.48;100464.75;5016042;28;20220;-65
2021/08/06 05:02:21;;;;;;;5.30;3.70;;;;;;;23.24;56.50;100486.06;5009079;28;20185;-65
2021/08/06 05:04:46;;;;;;;5.63;3.60;;;;;;;23.03;56.21;100496.19;5018710;28;20188;-65
2021/08/06 05:07:18;;;;;;;4.27;3.87;;;;;;;23.15;55.84;100483.50;5009718;28;20740;-65
2021/08/06 05:09:45;;;;;;;3.77;3.47;;;;;;;22.99;55.45;100476.66;5018899;28;20185;-65
2021/08/06 05:12:11;;;;;;;4.03;3.63;;;;;;;22.89;55.39;100485.94;5015780;28;20613;-65
2021/08/06 05:14:37;;;;;;;4.60;4.20;;;;;;;22.23;55.86;100399.41;5009732;28;20268;-65
2021/08/06 05:17:02;;;;;;;4.70;4.13;;;;;;;22.85;55.57;100494.72;5009595;28;20191;-65
2021/08/06 05:19:28;;;;;;;5.10;4.10;;;;;;;22.95;55.91;100495.16;5009258;28;20679;-66
2021/08/06 05:21:53;;;;;;;4.73;3.80;;;;;;;22.97;56.10;100498.25;5008895;28;20180;-66
2021/08/06 05:24:19;;;;;;;4.70;2.83;;;;;;;22.96;56.14;100502.34;5016998;28;20670;-65
2021/08/06 05:26:44;;;;;;;5.07;2.80;;;;;;;22.89;56.03;100478.25;5028142;28;20259;-65
2021/08/06 05:29:09;;;;;;;7.57;2.93;;;;;;;23.09;56.26;100496.91;5024999;28;20679;-65
2021/08/06 05:31:35;;;;;;;4.10;2.40;;;;;;;22.96;55.69;100472.03;5011676;28;20231;-65
2021/08/06 05:34:00;;;;;;;2.90;1.70;;;;;;;22.99;55.46;100468.19;5022484;28;20192;-65
2021/08/06 05:36:26;;;;;;;3.23;1.93;;;;;;;23.32;55.18;100501.94;5032440;28;20183;-65
2021/08/06 05:38:51;;;;;;;2.67;1.80;;;;;;;23.38;54.22;100501.94;5015061;28;20220;-65
2021/08/06 05:41:17;;;;;;;2.57;1.60;;;;;;;23.40;54.21;100494.47;5013415;28;20630;-66
2021/08/06 05:43:43;;;;;;;2.40;1.90;;;;;;;23.47;54.12;100493.88;5013524;28;20195;-66
2021/08/06 05:46:09;;;;;;;6.77;1.80;;;;;;;23.62;53.51;100490.69;5013145;28;20232;-65
2021/08/06 05:48:35;;;;;;;3.47;1.70;;;;;;;23.67;53.25;100496.31;5025482;28;20620;-65
2021/08/06 05:51:00;;;;;;;2.97;2.00;;;;;;;23.61;51.70;100487.13;5032040;28;20205;-65
2021/08/06 05:53:26;;;;;;;3.13;1.90;;;;;;;23.43;51.78;100467.19;5014402;28;20188;-65
2021/08/06 05:55:52;;;;;;;4.23;1.83;;;;;;;23.66;51.37;100497.63;4996283;28;20253;-66
2021/08/06 05:58:17;;;;;;;3.07;1.73;;;;;;;23.74;52.21;100495.75;5016669;28;20335;-65
2021/08/06 06:00:43;;;;;;;1.70;1.60;;;;;;;23.53;51.67;100457.84;5032726;28;20611;-66
2021/08/06 06:03:08;;;;;;;2.47;1.53;;;;;;;23.56;51.07;100492.78;5032291;28;20655;-65
2021/08/06 06:05:33;;;;;;;2.67;2.10;;;;;;;23.74;51.01;100497.81;5032661;28;20185;-65
2021/08/06 06:07:59;;;;;;;2.60;1.90;;;;;;;23.77;51.16;100502.41;5031803;28;20733;-65
2021/08/06 06:10:24;;;;;;;3.13;1.90;;;;;;;23.83;50.97;100503.13;5017119;28;20236;-65
2021/08/06 06:12:51;;;;;;;2.10;1.90;;;;;;;23.96;50.85;100506.91;5031971;28;20267;-66
2021/08/06 06:15:17;;;;;;;4.50;2.00;;;;;;;24.00;50.75;100504.56;5032405;28;20228;-66
2021/08/06 06:17:44;;;;;;;3.63;1.73;;;;;;;24.09;50.07;100492.91;5032898;28;20272;-65
2021/08/06 06:20:10;;;;;;;2.00;1.50;;;;;;;24.05;48.48;100495.25;5032013;28;20180;-65
2021/08/06 06:22:35;;;;;;;3.27;1.70;;;;;;;24.12;49.15;100499.59;5016484;28;20213;-65
2021/08/06 06:25:01;;;;;;;2.97;1.50;;;;;;;24.11;49.10;100493.13;5032467;28;20216;-65
2021/08/06 06:27:27;;;;;;;3.60;1.57;;;;;;;23.85;48.19;100444.72;5031777;28;20696;-65
2021/08/06 06:29:53;;;;;;;3.50;1.57;;;;;;;24.39;48.43;100496.47;5014245;28;20220;-66
2021/08/06 06:32:18;;;;;;;3.17;1.70;;;;;;;24.14;48.00;100474.31;5025809;28;20190;-65
2021/08/06 06:34:44;;;;;;;4.67;1.67;;;;;;;24.34;48.11;100496.53;5012907;28;20190;-65
2021/08/06 06:37:09;;;;;;;2.90;1.73;;;;;;;24.21;48.45;100508.50;5011470;28;20546;-65
2021/08/06 06:39:35;;;;;;;1.87;1.70;;;;;;;24.31;48.25;100506.84;5012117;28;20185;-65
2021/08/06 06:42:00;;;;;;;1.53;1.40;;;;;;;24.19;48.48;100504.66;5012620;28;20573;-65
2021/08/06 06:44:26;;;;;;;1.70;1.37;;;;;;;23.70;47.41;100424.53;5011924;28;20186;-65
2021/08/06 06:46:52;;;;;;;1.50;1.40;;;;;;;23.83;47.50;100469.97;5012346;28;20174;-65
2021/08/06 06:49:17;;;;;;;1.90;1.70;;;;;;;23.91;48.09;100465.28;5007626;28;20201;-66
2021/08/06 06:51:43;;;;;;;1.97;1.53;;;;;;;24.31;48.96;100511.75;5003145;28;20213;-65
2021/08/06 06:54:08;;;;;;;2.57;1.40;;;;;;;23.99;48.29;100454.13;5012533;28;20196;-65
2021/08/06 06:56:34;;;;;;;1.73;1.37;;;;;;;24.32;48.00;100502.75;5012117;28;20587;-65
2021/08/06 06:58:59;;;;;;;1.50;1.30;;;;;;;24.29;47.61;100481.13;5021399;28;20220;-65
2021/08/06 07:01:25;;;;;;;2.40;1.20;;;;;;;24.20;47.66;100472.22;5031887;28;20573;-65
2021/08/06 07:03:50;;;;;;;3.20;1.40;;;;;;;24.47;48.06;100493.81;5031329;28;20209;-65
2021/08/06 07:06:20;;;;;;;1.40;1.10;;;;;;;24.55;47.55;100491.91;5031675;28;20239;-65
2021/08/06 07:08:46;;;;;;;2.17;1.10;;;;;;;24.67;47.41;100499.06;5012015;28;20624;-65
2021/08/06 07:11:11;;;;;;;2.60;1.17;;;;;;;24.71;47.13;100494.59;4995643;28;20363;-66
2021/08/06 07:13:37;;;;;;;1.73;1.10;;;;;;;24.82;46.79;100497.31;5031737;28;20264;-65
2021/08/06 07:16:03;;;;;;;3.23;1.30;;;;;;;24.58;46.86;100443.50;5013846;28;20197;-65
2021/08/06 07:18:28;;;;;;;2.50;1.10;;;;;;;24.99;45.96;100502.78;5031798;28;20242;-66
2021/08/06 07:20:54;;;;;;;1.67;1.20;;;;;;;24.58;46.61;100420.03;5030718;28;20189;-65
2021/08/06 07:23:19;;;;;;;3.33;0.97;;;;;;;25.04;45.59;100488.53;5027974;28;20276;-65
2021/08/06 07:25:45;;;;;;;1.03;0.87;;;;;;;24.90;45.00;100471.97;5011799;28;20190;-65
2021/08/06 07:28:11;;;;;;;1.47;0.87;;;;;;;25.12;46.31;100494.38;4994510;28;20190;-66
2021/08/06 07:30:37;;;;;;;0.70;0.70;;;;;;;25.28;46.05;100494.16;5011057;28;20213;-65
2021/08/06 07:33:04;;;;;;;2.60;0.93;;;;;;;25.41;45.46;100488.56;5011375;28;20209;-65
2021/08/06 07:35:31;;;;;;;0.70;0.43;;;;;;;25.47;43.38;100494.91;5011274;28;20225;-65
2021/08/06 07:37:57;;;;;;;1.17;0.80;;;;;;;25.19;43.27;100480.31;5011932;28;20184;-65
2021/08/06 07:40:22;;;;;;;0.60;0.50;;;;;;;25.34;44.37;100482.75;5011204;28;20177;-65
2021/08/06 07:42:48;;;;;;;0.50;0.50;;;;;;;25.42;42.85;100489.31;5011882;28;20182;-66
2021/08/06 07:45:14;;;;;;;3.03;0.70;;;;;;;25.03;42.26;100426.69;5011276;28;20701;-65
2021/08/06 07:47:39;;;;;;;1.37;0.60;;;;;;;25.44;42.30;100490.31;4998675;28;20189;-66
2021/08/06 07:50:06;;;;;;;3.10;0.60;;;;;;;25.55;42.40;100493.00;5031127;28;20204;-66
2021/08/06 07:52:32;;;;;;;1.00;0.60;;;;;;;25.63;42.11;100493.91;5030190;28;20191;-65
2021/08/06 07:54:58;;;;;;;0.73;0.40;;;;;;;25.77;41.22;100486.19;5031197;28;20177;-65
2021/08/06 07:57:24;;;;;;;1.60;0.73;;;;;;;25.81;41.29;100490.25;5030300;28;20702;-65
2021/08/06 07:59:49;;;;;;;1.57;0.53;;;;;;;25.91;41.37;100490.63;5019477;28;20224;-65
2021/08/06 08:02:15;;;;;;;0.73;0.57;;;;;;;26.02;41.31;100487.63;5030813;28;20184;-65
2021/08/06 08:04:40;;;;;;;2.63;0.70;;;;;;;25.85;41.30;100464.41;5030900;28;20188;-66
2021/08/06 08:07:06;;;;;;;1.93;0.50;;;;;;;25.41;40.65;100440.34;5030446;28;20232;-65
2021/08/06 08:09:31;;;;;;;1.93;0.50;;;;;;;25.36;40.87;100417.72;5022488;28;20656;-66
2021/08/06 08:11:57;;;;;;;1.87;0.60;;;;;;;25.62;41.38;100455.47;5016613;28;20632;-68
2021/08/06 08:14:22;;;;;;;0.93;0.50;;;;;;;25.83;41.64;100467.00;5030724;28;20196;-65
2021/08/06 08:16:48;;;;;;;2.27;0.60;;;;;;;25.85;39.65;100462.31;5030685;28;20234;-65
2021/08/06 08:19:14;;;;;;;1.30;0.50;;;;;;;26.02;40.23;100467.72;5030893;28;20208;-65
2021/08/06 08:21:40;;;;;;;1.23;0.50;;;;;;;26.11;40.82;100458.81;5030271;28;20174;-66
2021/08/06 08:24:05;;;;;;;2.60;0.53;;;;;;;26.27;39.19;100466.25;5023663;28;20197;-65
2021/08/06 08:26:31;;;;;;;4.23;0.60;;;;;;;26.36;39.07;100463.00;5017109;28;20172;-66
2021/08/06 08:28:56;;;;;;;6.73;0.70;;;;;;;26.33;39.32;100455.53;5030463;28;20181;-66
2021/08/06 08:31:22;;;;;;;2.07;0.53;;;;;;;26.20;39.21;100424.31;5011506;28;20667;-65
2021/08/06 08:33:47;;;;;;;1.53;0.60;;;;;;;26.60;38.64;100477.78;5029686;28;20263;-66
2021/08/06 08:36:13;;;;;;;1.33;0.40;;;;;;;26.27;37.68;100429.31;5012728;28;20730;-65
2021/08/06 08:38:57;;;;;;;2.50;0.60;;;;;;;26.56;38.60;100473.75;5010735;28;20600;-65
2021/08/06 08:41:24;;;;;;;3.70;0.57;;;;;;;26.45;36.42;100462.56;5010299;28;20677;-66
2021/08/06 08:43:49;;;;;;;5.97;0.60;;;;;;;26.67;35.63;100491.31;5010664;28;20177;-65
2021/08/06 08:46:17;;;;;;;7.73;0.83;;;;;;;26.56;36.00;100480.16;5011011;28;20212;-66
2021/08/06 08:48:45;;;;;;;6.87;0.80;;;;;;;26.48;36.55;100444.41;5017885;28;20186;-66
2021/08/06 08:51:12;;;;;;;8.87;0.87;;;;;;;26.80;36.09;100473.50;5017602;28;20513;-66
2021/08/06 08:53:38;;;;;;;3.50;0.60;;;;;;;26.47;36.15;100479.81;5030225;28;20181;-65
2021/08/06 08:56:03;;;;;;;8.63;0.67;;;;;;;26.55;36.48;100487.16;5029491;28;20234;-65
2021/08/06 08:58:29;;;;;;;3.07;0.50;;;;;;;26.27;36.14;100443.53;5025967;28;20186;-65
2021/08/06 09:00:55;;;;;;;4.50;0.70;;;;;;;26.46;36.09;100476.19;5029878;28;20463;-65
2021/08/06 09:03:38;;;;;;;1.03;0.40;;;;;;;26.58;36.51;100469.03;5019704;28;20181;-65
2021/08/06 09:06:04;;;;;;;3.50;0.47;;;;;;;26.62;35.68;100465.88;5010084;28;20633;-65
2021/08/06 09:08:30;;;;;;;2.43;0.40;;;;;;;26.72;36.33;100453.50;5010231;28;20205;-65
2021/08/06 09:10:56;;;;;;;6.07;0.70;;;;;;;27.05;36.47;100469.88;5028174;28;20722;-65
2021/08/06 09:13:22;;;;;;;3.87;0.50;;;;;;;26.96;35.75;100473.16;5029610;28;20238;-65
2021/08/06 09:15:54;;;;;;;5.43;0.50;;;;;;;26.46;35.55;100405.16;5029682;28;20544;-65
2021/08/06 09:18:28;;;;;;;1.80;0.40;;;;;;;27.05;36.50;100471.94;5029719;28;20183;-65
2021/08/06 09:21:00;;;;;;;1.60;0.50;;;;;;;27.26;35.59;100473.56;5011354;28;20180;-65
2021/08/06 09:23:53;;;;;;;2.50;0.33;;;;;;;27.28;34.94;100485.13;5019424;28;20189;-65
2021/08/06 09:26:27;;;;;;;4.40;0.63;;;;;;;27.30;35.52;100476.06;5008828;28;20241;-66
2021/08/06 09:29:00;;;;;;;4.27;0.60;;;;;;;27.37;34.99;100470.44;5009315;28;20655;-65
2021/08/06 09:31:26;;;;;;;13.43;0.97;;;;;;;27.35;34.94;100475.16;5008252;28;20205;-66
2021/08/06 09:34:10;;;;;;;5.73;0.50;;;;;;;27.37;35.02;100476.16;5020339;28;20267;-65
2021/08/06 09:36:36;;;;;;;1.97;0.70;;;;;;;27.47;35.02;100473.59;5027431;28;20193;-65
2021/08/06 09:39:15;;;;;;;4.43;0.60;;;;;;;27.55;35.89;100452.44;5029817;28;20189;-66
2021/08/06 09:41:42;;;;;;;2.00;0.70;;;;;;;27.48;35.96;100438.88;5024110;28;20177;-65
2021/08/06 09:44:25;;;;;;;1.87;0.60;;;;;;;27.87;33.93;100472.13;5009936;28;20182;-65
2021/08/06 09:46:51;;;;;;;4.03;0.83;;;;;;;27.73;34.42;100442.19;5028716;28;20208;-65
2021/08/06 09:49:20;;;;;;;3.35;0.40;;;;;;;28.07;33.45;100477.03;5029576;28;20215;-67
2021/08/06 09:51:49;;;;;;;1.13;0.67;;;;;;;28.15;34.59;100478.63;5029357;28;20208;-67
2021/08/06 09:54:25;;;;;;;2.95;0.60;;;;;;;28.05;34.72;100434.88;5029613;28;20280;-66
2021/08/06 09:57:20;;;;;;;4.05;0.88;;;;;;;28.49;34.24;100467.13;5029194;28;20184;-65
2021/08/06 09:59:51;;;;;;;2.47;0.63;;;;;;;28.58;34.33;100475.94;4996027;28;20572;-67
2021/08/06 10:02:30;;;;;;;4.03;0.70;;;;;;;28.32;33.98;100478.19;5001568;28;20229;-67
2021/08/06 10:04:57;;;;;;;0.88;0.40;;;;;;;28.65;33.64;100472.38;4992092;28;20190;-66
2021/08/06 10:07:25;;;;;;;3.85;0.60;;;;;;;28.86;33.99;100455.19;5009428;28;20252;-67
2021/08/06 10:09:51;;;;;;;2.45;0.50;;;;;;;28.80;33.48;100465.97;4991362;28;20186;-66
2021/08/06 10:12:17;;;;;;;1.80;0.60;;;;;;;28.42;33.60;100448.69;5012648;28;20250;-66
2021/08/06 10:14:42;;;;;;;1.38;0.50;;;;;;;28.37;33.16;100429.63;5028798;28;20185;-66
2021/08/06 10:17:10;;;;;;;1.15;0.50;;;;;;;28.03;34.68;100459.53;5032761;28;20272;-67
2021/08/06 10:19:35;;;;;;;4.80;0.65;;;;;;;27.87;34.64;100460.72;5032770;28;20189;-66
2021/08/06 10:22:01;;;;;;;5.70;0.70;;;;;;;27.88;34.72;100456.56;5025229;28;20177;-67
2021/08/06 10:24:27;;;;;;;3.25;0.65;;;;;;;27.80;34.29;100447.94;5012677;28;20652;-67
2021/08/06 10:26:53;;;;;;;1.52;0.50;;;;;;;27.98;34.93;100452.66;5012920;28;20613;-67
2021/08/06 10:29:21;;;;;;;2.63;0.63;;;;;;;28.01;35.31;100440.19;5012542;28;20243;-67
2021/08/06 10:32:15;;;;;;;1.67;0.60;;;;;;;28.26;35.35;100443.41;5012626;28;20233;-67
2021/08/06 10:35:05;;;;;;;2.90;0.77;;;;;;;28.06;33.67;100441.34;5012709;28;20192;-67
2021/08/06 10:37:51;;;;;;;2.40;0.70;;;;;;;28.19;34.53;100439.16;5012464;28;20675;-67
2021/08/06 10:40:31;;;;;;;1.83;0.73;;;;;;;28.30;34.17;100432.41;5012627;28;20173;-67
2021/08/06 10:42:57;;;;;;;5.50;0.90;;;;;;;28.51;34.70;100442.44;5019325;28;20553;-67
2021/08/06 10:45:49;;;;;;;4.77;0.60;;;;;;;28.55;34.28;100439.25;5032031;28;20185;-66
2021/08/06 10:48:34;;;;;;;3.70;0.60;;;;;;;28.44;33.99;100437.47;5014711;28;20762;-66
2021/08/06 10:51:15;;;;;;;4.40;0.90;;;;;;;28.05;34.58;100436.97;5031546;28;20228;-66
2021/08/06 10:53:56;;;;;;;2.17;0.60;;;;;;;27.97;33.42;100444.69;5031853;28;20272;-66
2021/08/06 10:56:31;;;;;;;3.10;0.57;;;;;;;28.30;33.96;100423.88;5032109;28;20260;-66
2021/08/06 10:59:03;;;;;;;3.40;0.60;;;;;;;28.32;34.19;100438.31;5023144;28;20184;-67
2021/08/06 11:01:30;;;;;;;4.77;0.50;;;;;;;28.32;34.43;100438.31;5004909;28;20186;-67
2021/08/06 11:04:10;;;;;;;0.73;0.40;;;;;;;28.56;34.71;100437.91;5009850;28;20182;-66
2021/08/06 11:06:48;;;;;;;2.58;0.65;;;;;;;28.25;33.92;100431.22;5006456;28;20717;-66
2021/08/06 11:09:24;;;;;;;2.22;0.60;;;;;;;28.60;34.51;100441.16;4994569;28;20265;-66
2021/08/06 11:11:57;;;;;;;2.88;0.43;;;;;;;28.89;33.23;100416.97;4992063;28;20197;-66
2021/08/06 11:14:28;;;;;;;2.42;0.50;;;;;;;29.12;33.78;100429.28;5003830;28;20205;-67
2021/08/06 11:17:10;;;;;;;2.88;0.80;;;;;;;28.85;32.40;100419.41;5011987;28;20181;-66
2021/08/06 11:19:43;;;;;;;5.90;0.85;;;;;;;28.36;33.36;100425.22;4992512;28;20217;-66
2021/08/06 11:22:28;;;;;;;2.05;0.70;;;;;;;28.34;33.48;100427.09;4974541;28;20178;-66
2021/08/06 11:24:56;;;;;;;4.10;0.55;;;;;;;28.13;34.13;100438.56;4998952;28;20215;-66
2021/08/06 11:27:33;;;;;;;2.83;0.45;;;;;;;28.32;33.96;100427.69;5009729;28;20186;-66
2021/08/06 11:30:03;;;;;;;2.67;0.50;;;;;;;28.69;32.58;100415.75;4995561;28;20177;-66